sensor_id;sensor_type;location;lat;lon;timestamp;P1;durP1;ratioP1;P2;durP2;ratioP2
1320;SDS011;653;51.480;11.992;2023-03-12T00:01:59;3.23;;;2.27;;
1320;SDS011;653;51.480;11.992;2023-03-12T00:04:26;5.00;;;2.30;;
1320;SDS011;653;51.480;11.992;2023-03-12T00:06:51;5.23;;;2.00;;
1320;SDS011;653;51.480;11.992;2023-03-12T00:09:18;5.83;;;3.57;;
1320;SDS011;653;51.480;11.992;2023-03-12T00:11:45;4.63;;;2.30;;
1320;SDS011;653;51.480;11.992;2023-03-12T00:14:12;6.67;;;2.57;;
1320;SDS011;653;51.480;11.992;2023-03-12T00:16:38;3.33;;;2.20;;
1320;SDS011;653;51.480;11.992;2023-03-12T00:19:06;7.33;;;3.00;;
1320;SDS011;653;51.480;11.992;2023-03-12T00:21:33;4.10;;;2.37;;
1320;SDS011;653;51.480;11.992;2023-03-12T00:24:02;5.57;;;2.70;;
1320;SDS011;653;51.480;11.992;2023-03-12T00:26:29;3.53;;;2.30;;
1320;SDS011;653;51.480;11.992;2023-03-12T00:28:56;4.23;;;2.57;;
1320;SDS011;653;51.480;11.992;2023-03-12T00:31:24;4.10;;;2.27;;
1320;SDS011;653;51.480;11.992;2023-03-12T00:33:53;9.10;;;2.27;;
1320;SDS011;653;51.480;11.992;2023-03-12T00:36:22;4.00;;;2.83;;
1320;SDS011;653;51.480;11.992;2023-03-12T00:38:57;3.80;;;2.80;;
1320;SDS011;653;51.480;11.992;2023-03-12T00:41:25;3.40;;;2.27;;
1320;SDS011;653;51.480;11.992;2023-03-12T00:43:52;5.87;;;2.60;;
1320;SDS011;653;51.480;11.992;2023-03-12T00:46:19;4.87;;;2.93;;
1320;SDS011;653;51.480;11.992;2023-03-12T00:48:46;3.83;;;2.13;;
1320;SDS011;653;51.480;11.992;2023-03-12T00:51:13;2.43;;;2.10;;
1320;SDS011;653;51.480;11.992;2023-03-12T00:53:40;6.43;;;2.80;;
1320;SDS011;653;51.480;11.992;2023-03-12T00:56:06;5.93;;;2.00;;
1320;SDS011;653;51.480;11.992;2023-03-12T00:58:33;3.07;;;1.83;;
1320;SDS011;653;51.480;11.992;2023-03-12T01:00:59;3.63;;;2.43;;
1320;SDS011;653;51.480;11.992;2023-03-12T01:03:25;7.80;;;2.47;;
1320;SDS011;653;51.480;11.992;2023-03-12T01:05:51;4.30;;;2.40;;
1320;SDS011;653;51.480;11.992;2023-03-12T01:08:22;13.30;;;2.80;;
1320;SDS011;653;51.480;11.992;2023-03-12T01:10:51;3.73;;;2.07;;
1320;SDS011;653;51.480;11.992;2023-03-12T01:13:18;3.87;;;2.60;;
1320;SDS011;653;51.480;11.992;2023-03-12T01:15:46;2.63;;;2.07;;
1320;SDS011;653;51.480;11.992;2023-03-12T01:18:12;3.43;;;2.40;;
1320;SDS011;653;51.480;11.992;2023-03-12T01:20:39;4.57;;;2.60;;
1320;SDS011;653;51.480;11.992;2023-03-12T01:23:05;4.70;;;2.87;;
1320;SDS011;653;51.480;11.992;2023-03-12T01:25:32;6.03;;;2.83;;
1320;SDS011;653;51.480;11.992;2023-03-12T01:28:01;4.20;;;2.73;;
1320;SDS011;653;51.480;11.992;2023-03-12T01:30:27;3.17;;;2.33;;
1320;SDS011;653;51.480;11.992;2023-03-12T01:32:55;7.03;;;2.70;;
1320;SDS011;653;51.480;11.992;2023-03-12T01:35:20;5.80;;;2.10;;
1320;SDS011;653;51.480;11.992;2023-03-12T01:37:46;4.10;;;2.50;;
1320;SDS011;653;51.480;11.992;2023-03-12T01:40:15;10.60;;;2.60;;
1320;SDS011;653;51.480;11.992;2023-03-12T01:42:54;4.30;;;2.27;;
1320;SDS011;653;51.480;11.992;2023-03-12T01:48:21;3.70;;;2.70;;
1320;SDS011;653;51.480;11.992;2023-03-12T01:50:48;3.93;;;2.27;;
1320;SDS011;653;51.480;11.992;2023-03-12T01:53:14;3.03;;;2.00;;
1320;SDS011;653;51.480;11.992;2023-03-12T01:55:41;4.43;;;2.00;;
1320;SDS011;653;51.480;11.992;2023-03-12T01:58:06;3.40;;;2.37;;
1320;SDS011;653;51.480;11.992;2023-03-12T02:00:35;3.83;;;2.00;;
1320;SDS011;653;51.480;11.992;2023-03-12T02:03:03;2.97;;;1.93;;
1320;SDS011;653;51.480;11.992;2023-03-12T02:08:33;5.37;;;2.53;;
1320;SDS011;653;51.480;11.992;2023-03-12T02:11:02;7.33;;;2.63;;
1320;SDS011;653;51.480;11.992;2023-03-12T02:13:29;6.40;;;2.87;;
1320;SDS011;653;51.480;11.992;2023-03-12T02:15:56;5.20;;;1.93;;
1320;SDS011;653;51.480;11.992;2023-03-12T02:18:22;4.93;;;1.97;;
1320;SDS011;653;51.480;11.992;2023-03-12T02:26:43;3.27;;;2.40;;
1320;SDS011;653;51.480;11.992;2023-03-12T02:29:10;7.70;;;2.83;;
1320;SDS011;653;51.480;11.992;2023-03-12T02:31:39;3.40;;;2.30;;
1320;SDS011;653;51.480;11.992;2023-03-12T02:34:09;2.50;;;2.30;;
1320;SDS011;653;51.480;11.992;2023-03-12T02:36:36;7.57;;;2.87;;
1320;SDS011;653;51.480;11.992;2023-03-12T02:39:03;4.60;;;2.53;;
1320;SDS011;653;51.480;11.992;2023-03-12T02:41:30;5.70;;;3.43;;
1320;SDS011;653;51.480;11.992;2023-03-12T02:44:03;5.37;;;2.90;;
1320;SDS011;653;51.480;11.992;2023-03-12T02:46:33;4.83;;;2.60;;
1320;SDS011;653;51.480;11.992;2023-03-12T02:49:00;2.73;;;1.80;;
1320;SDS011;653;51.480;11.992;2023-03-12T02:51:28;3.73;;;2.00;;
1320;SDS011;653;51.480;11.992;2023-03-12T02:53:55;4.17;;;2.20;;
1320;SDS011;653;51.480;11.992;2023-03-12T02:56:25;4.23;;;2.60;;
1320;SDS011;653;51.480;11.992;2023-03-12T02:58:52;4.37;;;2.80;;
1320;SDS011;653;51.480;11.992;2023-03-12T03:01:21;4.93;;;3.13;;
1320;SDS011;653;51.480;11.992;2023-03-12T03:03:51;2.83;;;1.83;;
1320;SDS011;653;51.480;11.992;2023-03-12T03:06:21;4.70;;;3.03;;
1320;SDS011;653;51.480;11.992;2023-03-12T03:08:50;2.47;;;2.27;;
1320;SDS011;653;51.480;11.992;2023-03-12T03:11:18;5.87;;;2.60;;
1320;SDS011;653;51.480;11.992;2023-03-12T03:13:50;7.50;;;3.50;;
1320;SDS011;653;51.480;11.992;2023-03-12T03:16:18;4.20;;;2.40;;
1320;SDS011;653;51.480;11.992;2023-03-12T03:18:45;4.63;;;2.97;;
1320;SDS011;653;51.480;11.992;2023-03-12T03:21:13;11.00;;;4.83;;
1320;SDS011;653;51.480;11.992;2023-03-12T03:23:46;12.87;;;4.80;;
1320;SDS011;653;51.480;11.992;2023-03-12T03:26:17;8.73;;;3.73;;
1320;SDS011;653;51.480;11.992;2023-03-12T03:28:46;3.97;;;2.70;;
1320;SDS011;653;51.480;11.992;2023-03-12T03:31:12;7.20;;;2.23;;
1320;SDS011;653;51.480;11.992;2023-03-12T03:33:38;4.53;;;2.90;;
1320;SDS011;653;51.480;11.992;2023-03-12T03:36:06;6.40;;;3.03;;
1320;SDS011;653;51.480;11.992;2023-03-12T03:38:33;6.20;;;2.90;;
1320;SDS011;653;51.480;11.992;2023-03-12T03:41:05;4.50;;;2.80;;
1320;SDS011;653;51.480;11.992;2023-03-12T03:43:36;5.23;;;3.00;;
1320;SDS011;653;51.480;11.992;2023-03-12T03:46:03;3.03;;;2.17;;
1320;SDS011;653;51.480;11.992;2023-03-12T03:48:31;6.13;;;2.70;;
1320;SDS011;653;51.480;11.992;2023-03-12T03:51:00;3.10;;;2.80;;
1320;SDS011;653;51.480;11.992;2023-03-12T03:53:34;7.03;;;2.97;;
1320;SDS011;653;51.480;11.992;2023-03-12T03:56:08;5.57;;;2.60;;
1320;SDS011;653;51.480;11.992;2023-03-12T03:58:48;4.20;;;3.30;;
1320;SDS011;653;51.480;11.992;2023-03-12T04:01:15;7.23;;;2.97;;
1320;SDS011;653;51.480;11.992;2023-03-12T04:03:42;4.83;;;3.10;;
1320;SDS011;653;51.480;11.992;2023-03-12T04:06:08;7.70;;;4.17;;
1320;SDS011;653;51.480;11.992;2023-03-12T04:08:35;6.80;;;3.70;;
1320;SDS011;653;51.480;11.992;2023-03-12T04:11:07;4.63;;;2.70;;
1320;SDS011;653;51.480;11.992;2023-03-12T04:13:37;6.40;;;2.90;;
1320;SDS011;653;51.480;11.992;2023-03-12T04:16:04;4.90;;;2.63;;
1320;SDS011;653;51.480;11.992;2023-03-12T04:18:31;7.27;;;3.40;;
1320;SDS011;653;51.480;11.992;2023-03-12T04:20:57;6.57;;;2.30;;
1320;SDS011;653;51.480;11.992;2023-03-12T04:23:24;5.40;;;3.37;;
1320;SDS011;653;51.480;11.992;2023-03-12T04:25:54;3.57;;;2.77;;
1320;SDS011;653;51.480;11.992;2023-03-12T04:28:21;5.30;;;3.17;;
1320;SDS011;653;51.480;11.992;2023-03-12T04:30:54;3.93;;;3.07;;
1320;SDS011;653;51.480;11.992;2023-03-12T04:33:25;4.43;;;2.87;;
1320;SDS011;653;51.480;11.992;2023-03-12T04:35:52;5.60;;;3.30;;
1320;SDS011;653;51.480;11.992;2023-03-12T04:38:20;5.07;;;2.73;;
1320;SDS011;653;51.480;11.992;2023-03-12T04:43:35;6.63;;;3.07;;
1320;SDS011;653;51.480;11.992;2023-03-12T04:46:04;5.43;;;3.10;;
1320;SDS011;653;51.480;11.992;2023-03-12T04:48:33;4.87;;;2.67;;
1320;SDS011;653;51.480;11.992;2023-03-12T04:51:00;6.00;;;3.10;;
1320;SDS011;653;51.480;11.992;2023-03-12T04:53:26;3.80;;;2.70;;
1320;SDS011;653;51.480;11.992;2023-03-12T04:55:52;6.23;;;2.70;;
1320;SDS011;653;51.480;11.992;2023-03-12T04:58:20;6.33;;;3.50;;
1320;SDS011;653;51.480;11.992;2023-03-12T05:00:46;5.37;;;3.30;;
1320;SDS011;653;51.480;11.992;2023-03-12T05:03:13;5.23;;;2.97;;
1320;SDS011;653;51.480;11.992;2023-03-12T05:05:41;11.10;;;5.10;;
1320;SDS011;653;51.480;11.992;2023-03-12T05:08:08;6.13;;;3.30;;
1320;SDS011;653;51.480;11.992;2023-03-12T05:10:35;8.00;;;3.20;;
1320;SDS011;653;51.480;11.992;2023-03-12T05:13:03;7.70;;;3.50;;
1320;SDS011;653;51.480;11.992;2023-03-12T05:15:28;6.00;;;5.00;;
1320;SDS011;653;51.480;11.992;2023-03-12T05:17:55;9.33;;;4.50;;
1320;SDS011;653;51.480;11.992;2023-03-12T05:20:23;10.50;;;4.10;;
1320;SDS011;653;51.480;11.992;2023-03-12T05:22:49;42.90;;;14.27;;
1320;SDS011;653;51.480;11.992;2023-03-12T05:25:18;56.37;;;19.93;;
1320;SDS011;653;51.480;11.992;2023-03-12T05:27:44;31.27;;;10.80;;
1320;SDS011;653;51.480;11.992;2023-03-12T05:30:11;17.50;;;7.50;;
1320;SDS011;653;51.480;11.992;2023-03-12T05:32:37;51.83;;;17.30;;
1320;SDS011;653;51.480;11.992;2023-03-12T05:35:04;44.10;;;16.93;;
1320;SDS011;653;51.480;11.992;2023-03-12T05:37:30;13.77;;;6.47;;
1320;SDS011;653;51.480;11.992;2023-03-12T05:39:56;43.30;;;14.93;;
1320;SDS011;653;51.480;11.992;2023-03-12T05:42:24;81.23;;;21.97;;
1320;SDS011;653;51.480;11.992;2023-03-12T05:44:51;46.77;;;18.80;;
1320;SDS011;653;51.480;11.992;2023-03-12T05:47:18;33.43;;;11.87;;
1320;SDS011;653;51.480;11.992;2023-03-12T05:49:47;12.13;;;6.80;;
1320;SDS011;653;51.480;11.992;2023-03-12T05:52:14;17.20;;;7.60;;
1320;SDS011;653;51.480;11.992;2023-03-12T05:54:41;10.03;;;4.53;;
1320;SDS011;653;51.480;11.992;2023-03-12T05:57:08;8.00;;;4.00;;
1320;SDS011;653;51.480;11.992;2023-03-12T05:59:35;8.23;;;3.43;;
1320;SDS011;653;51.480;11.992;2023-03-12T06:02:00;4.50;;;2.90;;
1320;SDS011;653;51.480;11.992;2023-03-12T06:04:26;4.63;;;3.20;;
1320;SDS011;653;51.480;11.992;2023-03-12T06:06:54;4.17;;;2.73;;
1320;SDS011;653;51.480;11.992;2023-03-12T06:09:21;9.33;;;3.23;;
1320;SDS011;653;51.480;11.992;2023-03-12T06:11:48;4.67;;;2.77;;
1320;SDS011;653;51.480;11.992;2023-03-12T06:14:15;7.70;;;3.53;;
1320;SDS011;653;51.480;11.992;2023-03-12T06:16:42;7.33;;;4.00;;
1320;SDS011;653;51.480;11.992;2023-03-12T06:19:10;4.30;;;2.87;;
1320;SDS011;653;51.480;11.992;2023-03-12T06:21:38;5.47;;;3.07;;
1320;SDS011;653;51.480;11.992;2023-03-12T06:24:04;3.70;;;2.97;;
1320;SDS011;653;51.480;11.992;2023-03-12T06:26:31;6.00;;;3.27;;
1320;SDS011;653;51.480;11.992;2023-03-12T06:28:57;5.33;;;2.93;;
1320;SDS011;653;51.480;11.992;2023-03-12T06:31:23;3.70;;;2.50;;
1320;SDS011;653;51.480;11.992;2023-03-12T06:33:49;6.63;;;2.47;;
1320;SDS011;653;51.480;11.992;2023-03-12T06:36:15;4.83;;;3.00;;
1320;SDS011;653;51.480;11.992;2023-03-12T06:38:41;6.03;;;3.10;;
1320;SDS011;653;51.480;11.992;2023-03-12T06:41:14;7.33;;;3.90;;
1320;SDS011;653;51.480;11.992;2023-03-12T06:43:41;4.40;;;2.50;;
1320;SDS011;653;51.480;11.992;2023-03-12T06:46:10;6.33;;;3.57;;
1320;SDS011;653;51.480;11.992;2023-03-12T06:48:47;5.93;;;3.83;;
1320;SDS011;653;51.480;11.992;2023-03-12T06:51:14;4.67;;;4.20;;
1320;SDS011;653;51.480;11.992;2023-03-12T06:53:44;6.63;;;3.60;;
1320;SDS011;653;51.480;11.992;2023-03-12T06:56:12;6.00;;;3.23;;
1320;SDS011;653;51.480;11.992;2023-03-12T06:58:39;6.40;;;3.00;;
1320;SDS011;653;51.480;11.992;2023-03-12T07:01:06;5.73;;;3.20;;
1320;SDS011;653;51.480;11.992;2023-03-12T07:03:31;6.87;;;3.90;;
1320;SDS011;653;51.480;11.992;2023-03-12T07:06:00;3.97;;;3.30;;
1320;SDS011;653;51.480;11.992;2023-03-12T07:08:28;5.00;;;2.47;;
1320;SDS011;653;51.480;11.992;2023-03-12T07:10:56;4.20;;;2.80;;
1320;SDS011;653;51.480;11.992;2023-03-12T07:13:29;8.20;;;3.00;;
1320;SDS011;653;51.480;11.992;2023-03-12T07:15:56;4.73;;;2.40;;
1320;SDS011;653;51.480;11.992;2023-03-12T07:18:26;4.27;;;3.10;;
1320;SDS011;653;51.480;11.992;2023-03-12T07:20:54;6.67;;;3.03;;
1320;SDS011;653;51.480;11.992;2023-03-12T07:23:21;3.33;;;2.40;;
1320;SDS011;653;51.480;11.992;2023-03-12T07:25:48;2.83;;;1.90;;
1320;SDS011;653;51.480;11.992;2023-03-12T07:28:14;3.60;;;2.40;;
1320;SDS011;653;51.480;11.992;2023-03-12T07:30:42;5.40;;;2.83;;
1320;SDS011;653;51.480;11.992;2023-03-12T07:33:18;2.97;;;1.97;;
1320;SDS011;653;51.480;11.992;2023-03-12T07:35:47;4.30;;;2.90;;
1320;SDS011;653;51.480;11.992;2023-03-12T07:38:14;6.70;;;4.30;;
1320;SDS011;653;51.480;11.992;2023-03-12T07:40:39;5.27;;;2.80;;
1320;SDS011;653;51.480;11.992;2023-03-12T07:43:05;6.33;;;2.93;;
1320;SDS011;653;51.480;11.992;2023-03-12T07:45:37;7.13;;;3.20;;
1320;SDS011;653;51.480;11.992;2023-03-12T07:48:04;6.50;;;3.20;;
1320;SDS011;653;51.480;11.992;2023-03-12T07:50:32;7.73;;;4.80;;
1320;SDS011;653;51.480;11.992;2023-03-12T07:52:58;5.47;;;3.90;;
1320;SDS011;653;51.480;11.992;2023-03-12T07:55:26;4.37;;;2.90;;
1320;SDS011;653;51.480;11.992;2023-03-12T07:57:51;7.10;;;3.60;;
1320;SDS011;653;51.480;11.992;2023-03-12T08:00:20;4.77;;;2.60;;
1320;SDS011;653;51.480;11.992;2023-03-12T08:02:46;3.67;;;2.67;;
1320;SDS011;653;51.480;11.992;2023-03-12T08:05:13;3.90;;;2.70;;
1320;SDS011;653;51.480;11.992;2023-03-12T08:07:39;6.43;;;2.97;;
1320;SDS011;653;51.480;11.992;2023-03-12T08:10:11;3.10;;;2.23;;
1320;SDS011;653;51.480;11.992;2023-03-12T08:12:36;5.47;;;3.60;;
1320;SDS011;653;51.480;11.992;2023-03-12T08:15:04;5.67;;;3.20;;
1320;SDS011;653;51.480;11.992;2023-03-12T08:17:30;2.73;;;2.50;;
1320;SDS011;653;51.480;11.992;2023-03-12T08:19:56;4.70;;;2.30;;
1320;SDS011;653;51.480;11.992;2023-03-12T08:22:23;2.80;;;2.40;;
1320;SDS011;653;51.480;11.992;2023-03-12T08:24:50;5.00;;;3.17;;
1320;SDS011;653;51.480;11.992;2023-03-12T08:27:15;4.57;;;2.73;;
1320;SDS011;653;51.480;11.992;2023-03-12T08:29:40;2.70;;;2.40;;
1320;SDS011;653;51.480;11.992;2023-03-12T08:32:07;3.20;;;2.50;;
1320;SDS011;653;51.480;11.992;2023-03-12T08:34:36;3.63;;;3.33;;
1320;SDS011;653;51.480;11.992;2023-03-12T08:37:02;5.53;;;2.60;;
1320;SDS011;653;51.480;11.992;2023-03-12T08:39:28;4.40;;;2.77;;
1320;SDS011;653;51.480;11.992;2023-03-12T08:41:55;4.70;;;2.70;;
1320;SDS011;653;51.480;11.992;2023-03-12T08:44:21;4.83;;;3.20;;
1320;SDS011;653;51.480;11.992;2023-03-12T08:46:48;6.73;;;3.07;;
1320;SDS011;653;51.480;11.992;2023-03-12T08:49:20;7.03;;;4.67;;
1320;SDS011;653;51.480;11.992;2023-03-12T08:51:47;4.83;;;3.27;;
1320;SDS011;653;51.480;11.992;2023-03-12T08:54:15;4.90;;;2.90;;
1320;SDS011;653;51.480;11.992;2023-03-12T08:56:43;7.00;;;2.90;;
1320;SDS011;653;51.480;11.992;2023-03-12T08:59:22;3.67;;;3.20;;
1320;SDS011;653;51.480;11.992;2023-03-12T09:01:49;4.67;;;3.13;;
1320;SDS011;653;51.480;11.992;2023-03-12T09:04:17;3.73;;;2.90;;
1320;SDS011;653;51.480;11.992;2023-03-12T09:06:49;3.47;;;2.60;;
1320;SDS011;653;51.480;11.992;2023-03-12T09:09:14;3.37;;;2.90;;
1320;SDS011;653;51.480;11.992;2023-03-12T09:11:41;4.63;;;3.07;;
1320;SDS011;653;51.480;11.992;2023-03-12T09:14:08;5.57;;;3.17;;
1320;SDS011;653;51.480;11.992;2023-03-12T09:16:34;5.90;;;2.93;;
1320;SDS011;653;51.480;11.992;2023-03-12T09:19:01;7.43;;;2.90;;
1320;SDS011;653;51.480;11.992;2023-03-12T09:21:28;4.37;;;2.50;;
1320;SDS011;653;51.480;11.992;2023-03-12T09:23:58;5.60;;;5.10;;
1320;SDS011;653;51.480;11.992;2023-03-12T09:26:25;3.97;;;2.60;;
1320;SDS011;653;51.480;11.992;2023-03-12T09:28:52;5.93;;;3.23;;
1320;SDS011;653;51.480;11.992;2023-03-12T09:31:18;3.53;;;2.57;;
1320;SDS011;653;51.480;11.992;2023-03-12T09:33:45;4.23;;;2.80;;
1320;SDS011;653;51.480;11.992;2023-03-12T09:36:12;6.40;;;3.50;;
1320;SDS011;653;51.480;11.992;2023-03-12T09:38:39;6.20;;;2.80;;
1320;SDS011;653;51.480;11.992;2023-03-12T09:41:05;7.30;;;2.40;;
1320;SDS011;653;51.480;11.992;2023-03-12T09:43:40;4.20;;;3.03;;
1320;SDS011;653;51.480;11.992;2023-03-12T09:46:22;4.43;;;2.80;;
1320;SDS011;653;51.480;11.992;2023-03-12T09:48:55;5.13;;;3.80;;
1320;SDS011;653;51.480;11.992;2023-03-12T09:51:32;3.00;;;2.70;;
1320;SDS011;653;51.480;11.992;2023-03-12T09:54:39;2.40;;;2.20;;
1320;SDS011;653;51.480;11.992;2023-03-12T09:57:26;2.70;;;2.33;;
1320;SDS011;653;51.480;11.992;2023-03-12T09:59:55;3.73;;;2.70;;
1320;SDS011;653;51.480;11.992;2023-03-12T10:08:45;3.20;;;2.70;;
1320;SDS011;653;51.480;11.992;2023-03-12T10:11:31;3.60;;;2.60;;
1320;SDS011;653;51.480;11.992;2023-03-12T10:26:00;5.00;;;2.93;;
1320;SDS011;653;51.480;11.992;2023-03-12T10:28:52;3.70;;;2.83;;
1320;SDS011;653;51.480;11.992;2023-03-12T10:32:04;3.97;;;2.70;;
1320;SDS011;653;51.480;11.992;2023-03-12T10:34:44;7.70;;;3.10;;
1320;SDS011;653;51.480;11.992;2023-03-12T10:37:30;3.10;;;2.70;;
1320;SDS011;653;51.480;11.992;2023-03-12T10:40:00;3.93;;;2.80;;
1320;SDS011;653;51.480;11.992;2023-03-12T10:42:28;5.50;;;3.00;;
1320;SDS011;653;51.480;11.992;2023-03-12T10:45:00;5.00;;;2.93;;
1320;SDS011;653;51.480;11.992;2023-03-12T10:48:04;5.33;;;3.50;;
1320;SDS011;653;51.480;11.992;2023-03-12T10:50:35;4.37;;;3.00;;
1320;SDS011;653;51.480;11.992;2023-03-12T10:56:08;3.17;;;2.80;;
1320;SDS011;653;51.480;11.992;2023-03-12T10:58:48;4.30;;;3.13;;
1320;SDS011;653;51.480;11.992;2023-03-12T11:01:24;4.27;;;3.73;;
1320;SDS011;653;51.480;11.992;2023-03-12T11:04:16;3.50;;;3.03;;
1320;SDS011;653;51.480;11.992;2023-03-12T11:07:04;7.30;;;3.60;;
1320;SDS011;653;51.480;11.992;2023-03-12T11:09:33;5.50;;;3.63;;
1320;SDS011;653;51.480;11.992;2023-03-12T11:11:58;4.30;;;3.10;;
1320;SDS011;653;51.480;11.992;2023-03-12T11:14:26;3.80;;;3.40;;
1320;SDS011;653;51.480;11.992;2023-03-12T11:16:56;4.33;;;3.27;;
1320;SDS011;653;51.480;11.992;2023-03-12T11:19:48;3.83;;;3.40;;
1320;SDS011;653;51.480;11.992;2023-03-12T11:22:25;6.27;;;3.67;;
1320;SDS011;653;51.480;11.992;2023-03-12T11:24:55;4.20;;;3.87;;
1320;SDS011;653;51.480;11.992;2023-03-12T11:27:41;6.53;;;3.53;;
1320;SDS011;653;51.480;11.992;2023-03-12T11:30:13;6.87;;;3.80;;
1320;SDS011;653;51.480;11.992;2023-03-12T11:32:42;9.03;;;4.63;;
1320;SDS011;653;51.480;11.992;2023-03-12T11:35:14;4.00;;;3.60;;
1320;SDS011;653;51.480;11.992;2023-03-12T11:38:00;4.97;;;3.40;;
1320;SDS011;653;51.480;11.992;2023-03-12T11:46:46;4.23;;;3.57;;
1320;SDS011;653;51.480;11.992;2023-03-12T12:00:16;7.60;;;3.50;;
1320;SDS011;653;51.480;11.992;2023-03-12T12:08:40;4.13;;;3.30;;
1320;SDS011;653;51.480;11.992;2023-03-12T12:12:07;6.00;;;3.50;;
1320;SDS011;653;51.480;11.992;2023-03-12T12:25:30;3.60;;;3.03;;
1320;SDS011;653;51.480;11.992;2023-03-12T12:28:07;4.17;;;3.30;;
1320;SDS011;653;51.480;11.992;2023-03-12T12:42:45;7.70;;;3.50;;
1320;SDS011;653;51.480;11.992;2023-03-12T12:45:39;4.43;;;3.83;;
1320;SDS011;653;51.480;11.992;2023-03-12T12:48:07;5.20;;;3.90;;
1320;SDS011;653;51.480;11.992;2023-03-12T12:50:37;8.20;;;4.73;;
1320;SDS011;653;51.480;11.992;2023-03-12T12:53:09;3.90;;;3.10;;
1320;SDS011;653;51.480;11.992;2023-03-12T13:01:57;4.33;;;3.70;;
1320;SDS011;653;51.480;11.992;2023-03-12T13:04:26;4.87;;;3.40;;
1320;SDS011;653;51.480;11.992;2023-03-12T13:09:45;4.30;;;3.67;;
1320;SDS011;653;51.480;11.992;2023-03-12T13:12:29;15.40;;;10.03;;
1320;SDS011;653;51.480;11.992;2023-03-12T13:14:59;4.40;;;4.00;;
1320;SDS011;653;51.480;11.992;2023-03-12T13:17:26;6.30;;;4.23;;
1320;SDS011;653;51.480;11.992;2023-03-12T13:20:16;5.03;;;3.20;;
1320;SDS011;653;51.480;11.992;2023-03-12T13:25:57;4.43;;;2.87;;
1320;SDS011;653;51.480;11.992;2023-03-12T13:33:52;4.40;;;2.50;;
1320;SDS011;653;51.480;11.992;2023-03-12T13:36:43;4.27;;;2.57;;
1320;SDS011;653;51.480;11.992;2023-03-12T13:47:26;5.17;;;3.37;;
1320;SDS011;653;51.480;11.992;2023-03-12T13:50:03;6.97;;;3.03;;
1320;SDS011;653;51.480;11.992;2023-03-12T13:55:20;8.10;;;3.17;;
1320;SDS011;653;51.480;11.992;2023-03-12T13:57:51;6.33;;;2.97;;
1320;SDS011;653;51.480;11.992;2023-03-12T14:00:30;3.70;;;2.97;;
1320;SDS011;653;51.480;11.992;2023-03-12T14:03:21;6.70;;;3.10;;
1320;SDS011;653;51.480;11.992;2023-03-12T14:05:58;4.63;;;2.67;;
1320;SDS011;653;51.480;11.992;2023-03-12T14:17:25;4.37;;;2.80;;
1320;SDS011;653;51.480;11.992;2023-03-12T14:20:02;5.70;;;3.70;;
1320;SDS011;653;51.480;11.992;2023-03-12T14:22:34;5.23;;;3.10;;
1320;SDS011;653;51.480;11.992;2023-03-12T14:25:22;4.57;;;3.43;;
1320;SDS011;653;51.480;11.992;2023-03-12T14:28:08;5.80;;;3.37;;
1320;SDS011;653;51.480;11.992;2023-03-12T14:33:57;5.83;;;2.80;;
1320;SDS011;653;51.480;11.992;2023-03-12T14:39:34;4.80;;;2.90;;
1320;SDS011;653;51.480;11.992;2023-03-12T14:42:08;4.67;;;2.93;;
1320;SDS011;653;51.480;11.992;2023-03-12T14:44:38;5.13;;;3.30;;
1320;SDS011;653;51.480;11.992;2023-03-12T14:47:06;6.23;;;2.70;;
1320;SDS011;653;51.480;11.992;2023-03-12T14:49:43;5.90;;;3.50;;
1320;SDS011;653;51.480;11.992;2023-03-12T14:52:14;4.27;;;2.50;;
1320;SDS011;653;51.480;11.992;2023-03-12T14:54:54;4.30;;;2.70;;
1320;SDS011;653;51.480;11.992;2023-03-12T14:57:26;8.47;;;3.70;;
1320;SDS011;653;51.480;11.992;2023-03-12T14:59:56;6.37;;;3.80;;
1320;SDS011;653;51.480;11.992;2023-03-12T15:02:23;6.77;;;3.07;;
1320;SDS011;653;51.480;11.992;2023-03-12T15:04:53;3.90;;;3.13;;
1320;SDS011;653;51.480;11.992;2023-03-12T15:07:22;6.23;;;4.00;;
1320;SDS011;653;51.480;11.992;2023-03-12T15:09:53;5.70;;;4.00;;
1320;SDS011;653;51.480;11.992;2023-03-12T15:12:20;5.03;;;3.67;;
1320;SDS011;653;51.480;11.992;2023-03-12T15:14:53;4.30;;;3.30;;
1320;SDS011;653;51.480;11.992;2023-03-12T15:17:32;5.90;;;3.93;;
1320;SDS011;653;51.480;11.992;2023-03-12T15:20:03;4.70;;;3.30;;
1320;SDS011;653;51.480;11.992;2023-03-12T15:22:31;6.60;;;3.80;;
1320;SDS011;653;51.480;11.992;2023-03-12T15:25:00;10.00;;;4.17;;
1320;SDS011;653;51.480;11.992;2023-03-12T15:27:32;8.17;;;4.00;;
1320;SDS011;653;51.480;11.992;2023-03-12T15:29:59;4.80;;;3.50;;
1320;SDS011;653;51.480;11.992;2023-03-12T15:32:26;4.10;;;3.30;;
1320;SDS011;653;51.480;11.992;2023-03-12T15:34:56;7.90;;;3.97;;
1320;SDS011;653;51.480;11.992;2023-03-12T15:37:29;5.80;;;4.00;;
1320;SDS011;653;51.480;11.992;2023-03-12T15:40:06;4.53;;;3.40;;
1320;SDS011;653;51.480;11.992;2023-03-12T15:43:04;5.60;;;4.07;;
1320;SDS011;653;51.480;11.992;2023-03-12T15:45:38;5.20;;;3.73;;
1320;SDS011;653;51.480;11.992;2023-03-12T15:48:25;5.87;;;4.03;;
1320;SDS011;653;51.480;11.992;2023-03-12T15:50:53;6.80;;;4.40;;
1320;SDS011;653;51.480;11.992;2023-03-12T15:55:55;7.10;;;5.00;;
1320;SDS011;653;51.480;11.992;2023-03-12T15:58:29;7.80;;;4.40;;
1320;SDS011;653;51.480;11.992;2023-03-12T16:01:16;7.93;;;3.90;;
1320;SDS011;653;51.480;11.992;2023-03-12T16:03:43;6.50;;;5.40;;
1320;SDS011;653;51.480;11.992;2023-03-12T16:06:14;4.80;;;3.13;;
1320;SDS011;653;51.480;11.992;2023-03-12T16:08:45;5.67;;;4.17;;
1320;SDS011;653;51.480;11.992;2023-03-12T16:11:16;5.70;;;4.07;;
1320;SDS011;653;51.480;11.992;2023-03-12T16:13:46;6.30;;;3.83;;
1320;SDS011;653;51.480;11.992;2023-03-12T16:16:14;7.83;;;4.20;;
1320;SDS011;653;51.480;11.992;2023-03-12T16:18:42;4.30;;;3.70;;
1320;SDS011;653;51.480;11.992;2023-03-12T16:21:08;9.47;;;4.20;;
1320;SDS011;653;51.480;11.992;2023-03-12T16:23:36;6.10;;;3.97;;
1320;SDS011;653;51.480;11.992;2023-03-12T16:26:05;6.33;;;3.97;;
1320;SDS011;653;51.480;11.992;2023-03-12T16:28:32;6.80;;;3.87;;
1320;SDS011;653;51.480;11.992;2023-03-12T16:31:00;4.73;;;3.90;;
1320;SDS011;653;51.480;11.992;2023-03-12T16:33:26;7.37;;;4.20;;
1320;SDS011;653;51.480;11.992;2023-03-12T16:35:53;9.00;;;4.30;;
1320;SDS011;653;51.480;11.992;2023-03-12T16:38:20;5.97;;;3.37;;
1320;SDS011;653;51.480;11.992;2023-03-12T16:40:47;6.60;;;4.27;;
1320;SDS011;653;51.480;11.992;2023-03-12T16:43:22;4.67;;;4.10;;
1320;SDS011;653;51.480;11.992;2023-03-12T16:45:50;6.23;;;3.77;;
1320;SDS011;653;51.480;11.992;2023-03-12T16:48:24;4.40;;;3.73;;
1320;SDS011;653;51.480;11.992;2023-03-12T16:50:53;9.17;;;4.43;;
1320;SDS011;653;51.480;11.992;2023-03-12T16:53:22;5.00;;;3.67;;
1320;SDS011;653;51.480;11.992;2023-03-12T16:55:56;5.83;;;3.77;;
1320;SDS011;653;51.480;11.992;2023-03-12T16:58:24;4.73;;;3.90;;
1320;SDS011;653;51.480;11.992;2023-03-12T17:00:53;4.33;;;3.40;;
1320;SDS011;653;51.480;11.992;2023-03-12T17:03:21;4.80;;;3.63;;
1320;SDS011;653;51.480;11.992;2023-03-12T17:05:55;4.20;;;3.80;;
1320;SDS011;653;51.480;11.992;2023-03-12T17:08:21;3.90;;;3.47;;
1320;SDS011;653;51.480;11.992;2023-03-12T17:10:48;5.97;;;4.70;;
1320;SDS011;653;51.480;11.992;2023-03-12T17:13:20;5.70;;;4.00;;
1320;SDS011;653;51.480;11.992;2023-03-12T17:15:56;5.90;;;3.70;;
1320;SDS011;653;51.480;11.992;2023-03-12T17:18:23;5.53;;;4.10;;
1320;SDS011;653;51.480;11.992;2023-03-12T17:20:48;3.20;;;2.90;;
1320;SDS011;653;51.480;11.992;2023-03-12T17:23:15;5.07;;;3.90;;
1320;SDS011;653;51.480;11.992;2023-03-12T17:25:41;4.33;;;3.93;;
1320;SDS011;653;51.480;11.992;2023-03-12T17:28:22;4.40;;;3.70;;
1320;SDS011;653;51.480;11.992;2023-03-12T17:30:48;4.83;;;3.80;;
1320;SDS011;653;51.480;11.992;2023-03-12T17:33:15;3.80;;;3.50;;
1320;SDS011;653;51.480;11.992;2023-03-12T17:35:42;4.17;;;3.53;;
1320;SDS011;653;51.480;11.992;2023-03-12T17:38:10;4.90;;;4.50;;
1320;SDS011;653;51.480;11.992;2023-03-12T17:40:41;4.40;;;3.20;;
1320;SDS011;653;51.480;11.992;2023-03-12T17:43:07;5.70;;;4.20;;